Time;durP1;ratioP1;P1;durP2;ratioP2;P2;SDS_P1;SDS_P2;PMS_P1;PMS_P2;Temp;Humidity;BMP_temperature;BMP_pressure;BME280_temperature;BME280_humidity;BME280_pressure;Samples;Min_cycle;Max_cycle;Signal;HPM_P1;HPM_P2
2023/08/27 00:02:00;;;;;;;4.97;3.35;;;25.50;64.70;;;;;;10538424;28;20040;-32
2023/08/27 00:07:01;;;;;;;5.22;2.80;;;25.90;63.90;;;;;;10538581;28;20044;-34
2023/08/27 00:12:05;;;;;;;5.35;3.67;;;25.90;64.20;;;;;;10537881;28;20109;-35
2023/08/27 00:17:08;;;;;;;5.07;3.08;;;25.90;63.80;;;;;;10540155;28;20097;-32
2023/08/27 00:22:10;;;;;;;5.88;3.10;;;25.80;64.10;;;;;;10537703;28;20076;-32
2023/08/27 00:27:15;;;;;;;5.43;2.85;;;25.50;64.30;;;;;;10537634;28;20095;-38
2023/08/27 00:32:17;;;;;;;3.50;2.13;;;25.20;64.70;;;;;;10537712;28;20093;-33
2023/08/27 00:37:19;;;;;;;3.80;2.42;;;24.50;66.30;;;;;;10539054;28;20097;-34
2023/08/27 00:42:22;;;;;;;;;;;23.60;71.30;;;;;;10536709;28;20048;-35
2023/08/27 00:47:25;;;;;;;4.85;2.78;;;23.30;71.00;;;;;;10539951;28;19927;-35
2023/08/27 00:52:27;;;;;;;4.75;2.55;;;23.80;71.10;;;;;;10540180;28;21094;-31
2023/08/27 00:57:30;;;;;;;;;;;24.80;67.30;;;;;;10537966;28;20076;-32
2023/08/27 01:02:32;;;;;;;4.53;2.78;;;25.30;65.40;;;;;;10531076;28;19950;-33
2023/08/27 01:07:39;;;;;;;;;;;25.40;64.40;;;;;;10537500;28;20067;-34
2023/08/27 01:12:51;;;;;;;7.22;2.33;;;25.40;64.30;;;;;;10524294;28;19947;-34
2023/08/27 01:17:55;;;;;;;4.10;2.33;;;25.50;64.50;;;;;;10523223;28;20083;-34
2023/08/27 01:22:58;;;;;;;4.30;1.98;;;25.50;64.00;;;;;;10536973;28;20492;-32
2023/08/27 01:28:07;;;;;;;3.17;1.90;;;25.50;64.70;;;;;;10535358;28;20048;-31
2023/08/27 01:33:15;;;;;;;4.22;1.90;;;25.20;64.50;;;;;;10528056;28;20101;-33
2023/08/27 01:38:19;;;;;;;3.17;1.92;;;25.10;64.60;;;;;;10537932;28;20051;-33
2023/08/27 01:43:20;;;;;;;3.97;1.95;;;24.70;65.20;;;;;;10535588;28;20054;-38
2023/08/27 01:48:22;;;;;;;;;;;24.90;65.40;;;;;;10535800;28;20123;-38
2023/08/27 01:53:25;;;;;;;5.85;1.92;;;24.30;66.60;;;;;;10533228;28;20020;-38
2023/08/27 01:58:29;;;;;;;4.50;1.52;;;23.50;69.60;;;;;;10534251;28;20048;-40
2023/08/27 02:03:31;;;;;;;7.90;1.95;;;23.50;71.30;;;;;;10532279;28;20080;-31
2023/08/27 02:08:34;;;;;;;4.32;2.10;;;22.90;73.60;;;;;;10529593;28;20089;-35
2023/08/27 02:13:36;;;;;;;3.70;2.15;;;23.20;72.90;;;;;;10533754;28;20451;-32
2023/08/27 02:18:38;;;;;;;;;;;23.80;69.80;;;;;;10533315;28;20124;-34
2023/08/27 02:23:41;;;;;;;4.57;1.83;;;24.10;67.40;;;;;;10532705;28;20010;-36
2023/08/27 02:28:44;;;;;;;6.50;2.13;;;22.50;75.50;;;;;;10532838;28;20047;-31
2023/08/27 02:33:46;;;;;;;4.22;1.92;;;22.70;74.00;;;;;;10529797;28;20079;-33
2023/08/27 02:38:49;;;;;;;;;;;20.50;90.80;;;;;;10535867;28;20047;-35
2023/08/27 02:43:51;;;;;;;7.20;1.27;;;20.50;88.70;;;;;;10531911;28;19923;-33
2023/08/27 02:48:53;;;;;;;4.15;1.10;;;18.70;94.50;;;;;;10532904;28;20112;-34
2023/08/27 02:53:56;;;;;;;2.55;0.90;;;18.90;95.60;;;;;;10532621;28;20534;-35
2023/08/27 03:15:28;;;;;;;1.75;0.70;;;24.10;67.50;;;;;;10468892;27;2003326;-31
2023/08/27 03:20:30;;;;;;;2.63;1.17;;;24.50;67.20;;;;;;10553654;28;20577;-36
2023/08/27 03:25:32;;;;;;;;;;;24.50;66.40;;;;;;10542586;28;20054;-32
2023/08/27 03:30:35;;;;;;;2.88;1.05;;;24.60;66.30;;;;;;10551364;28;20019;-39
2023/08/27 03:35:37;;;;;;;1.65;0.90;;;24.50;65.80;;;;;;10542650;28;20640;-32
2023/08/27 03:40:39;;;;;;;;;;;24.50;66.00;;;;;;10551444;28;20125;-37
2023/08/27 03:45:42;;;;;;;3.65;1.33;;;24.60;65.60;;;;;;10544491;28;19960;-36
2023/08/27 03:50:46;;;;;;;2.95;1.10;;;24.60;65.60;;;;;;10548179;28;20044;-32
2023/08/27 03:55:48;;;;;;;1.25;0.70;;;24.50;65.30;;;;;;10540784;28;20121;-34
2023/08/27 04:00:51;;;;;;;1.48;0.77;;;24.50;65.60;;;;;;10556296;28;20416;-34
2023/08/27 04:05:53;;;;;;;2.53;0.88;;;24.50;65.30;;;;;;10557032;28;20105;-33
2023/08/27 04:10:55;;;;;;;;;;;24.50;64.80;;;;;;10545100;28;20622;-33
2023/08/27 04:16:03;;;;;;;1.38;0.70;;;24.50;65.30;;;;;;10539540;28;19969;-32
2023/08/27 04:21:05;;;;;;;3.35;0.85;;;24.50;64.70;;;;;;10540708;28;20055;-31
2023/08/27 04:26:07;;;;;;;1.88;0.60;;;24.40;64.90;;;;;;10514973;28;20048;-33
2023/08/27 04:31:10;;;;;;;1.67;0.60;;;24.50;65.30;;;;;;10523391;28;20044;-31
2023/08/27 04:36:12;;;;;;;1.52;0.80;;;24.40;64.60;;;;;;10509307;28;20118;-31
2023/08/27 04:41:13;;;;;;;;;;;24.40;64.90;;;;;;10518586;28;20098;-33
2023/08/27 04:46:17;;;;;;;2.60;0.73;;;24.30;64.70;;;;;;10515150;28;19928;-31
2023/08/27 04:51:19;;;;;;;1.88;0.70;;;24.40;64.70;;;;;;10517976;28;20052;-32
2023/08/27 04:56:20;;;;;;;;;;;24.40;65.10;;;;;;10517443;28;20097;-33
2023/08/27 05:01:24;;;;;;;;;;;23.90;64.00;;;;;;10505591;28;19964;-36
2023/08/27 05:06:26;;;;;;;2.67;0.60;;;24.10;66.10;;;;;;10518694;28;20052;-33
2023/08/27 05:11:32;;;;;;;;;;;24.20;64.30;;;;;;10524235;28;20095;-32
2023/08/27 05:16:35;;;;;;;1.55;0.65;;;24.20;65.40;;;;;;10515870;28;19924;-34
2023/08/27 05:21:37;;;;;;;0.60;0.43;;;24.20;64.80;;;;;;10527181;28;20076;-31
2023/08/27 05:26:39;;;;;;;1.45;0.60;;;24.20;64.60;;;;;;10520677;28;20071;-36
2023/08/27 05:31:42;;;;;;;;;;;24.30;64.60;;;;;;10497985;28;20434;-34
2023/08/27 05:36:44;;;;;;;0.95;0.57;;;24.30;64.90;;;;;;10508939;28;20405;-35
2023/08/27 05:41:46;;;;;;;0.95;0.43;;;24.20;65.10;;;;;;10502204;28;20056;-32
2023/08/27 05:46:50;;;;;;;1.70;0.50;;;24.20;65.00;;;;;;10530494;28;20043;-32
2023/08/27 05:51:52;;;;;;;0.55;0.40;;;24.30;64.80;;;;;;10529510;28;20060;-31
2023/08/27 05:56:53;;;;;;;2.05;0.47;;;24.20;64.90;;;;;;10512068;28;20085;-35
2023/08/27 06:01:57;;;;;;;;;;;24.30;64.60;;;;;;10528603;28;20048;-32
2023/08/27 06:06:59;;;;;;;0.93;0.43;;;24.30;64.80;;;;;;10522195;28;20361;-33
2023/08/27 06:12:02;;;;;;;;;;;24.30;64.60;;;;;;10523964;28;20064;-34
2023/08/27 06:17:05;;;;;;;2.45;1.00;;;24.10;65.10;;;;;;10520012;28;20387;-32
2023/08/27 06:22:07;;;;;;;4.47;1.92;;;23.40;66.70;;;;;;10519040;28;20173;-31
2023/08/27 06:27:09;;;;;;;7.30;2.40;;;20.60;86.50;;;;;;10515419;28;20502;-31
2023/08/27 06:32:14;;;;;;;7.60;2.60;;;19.60;92.80;;;;;;10504794;28;20079;-33
2023/08/27 06:37:16;;;;;;;1.88;1.25;;;19.10;94.60;;;;;;10508073;28;20048;-35
2023/08/27 06:42:18;;;;;;;4.63;1.20;;;19.30;94.20;;;;;;10513382;28;20037;-35
2023/08/27 06:47:21;;;;;;;6.45;1.52;;;17.50;99.90;;;;;;10514839;28;20090;-31
2023/08/27 06:52:23;;;;;;;4.13;1.15;;;16.50;99.90;;;;;;10510500;28;20148;-33
2023/08/27 06:57:25;;;;;;;1.42;0.90;;;19.20;96.20;;;;;;10512577;28;20089;-34
2023/08/27 07:02:28;;;;;;;5.07;0.70;;;22.30;79.50;;;;;;10506328;28;20044;-31
2023/08/27 07:07:30;;;;;;;1.00;0.50;;;23.20;72.70;;;;;;10520876;28;20834;-31
2023/08/27 07:12:33;;;;;;;;;;;23.20;71.40;;;;;;10499827;28;20048;-33
2023/08/27 07:17:38;;;;;;;1.15;0.60;;;22.80;72.30;;;;;;10500068;28;19949;-32
2023/08/27 07:22:40;;;;;;;1.38;0.60;;;23.30;71.40;;;;;;10506122;28;20040;-36
2023/08/27 07:27:42;;;;;;;;;;;23.50;69.70;;;;;;10513027;28;20079;-31
2023/08/27 07:32:45;;;;;;;1.75;0.50;;;23.60;69.10;;;;;;10512167;28;19920;-42
2023/08/27 07:37:47;;;;;;;4.18;0.85;;;23.40;69.30;;;;;;10516397;28;20048;-39
2023/08/27 07:42:50;;;;;;;0.38;0.20;;;23.50;68.60;;;;;;10514928;28;20052;-36
2023/08/27 07:47:53;;;;;;;0.52;0.40;;;23.60;68.60;;;;;;10519362;28;20052;-32
2023/08/27 07:52:55;;;;;;;1.45;0.40;;;23.70;68.10;;;;;;10509834;28;20087;-35
2023/08/27 07:57:59;;;;;;;1.30;0.50;;;23.60;67.90;;;;;;10512595;28;20056;-33
2023/08/27 08:03:02;;;;;;;0.70;0.40;;;23.70;67.50;;;;;;10529866;28;20046;-35
2023/08/27 08:08:05;;;;;;;1.38;0.47;;;23.70;66.90;;;;;;10517409;28;20048;-36
2023/08/27 08:13:07;;;;;;;2.50;0.55;;;23.80;66.70;;;;;;10517397;28;20048;-33
2023/08/27 08:18:10;;;;;;;;;;;23.60;66.70;;;;;;10513200;28;20048;-33
2023/08/27 08:23:12;;;;;;;0.93;0.50;;;23.40;67.20;;;;;;10534208;28;20365;-33
2023/08/27 08:28:15;;;;;;;1.23;0.82;;;23.00;68.30;;;;;;10519102;28;20036;-33
2023/08/27 08:33:18;;;;;;;3.20;1.30;;;22.60;69.90;;;;;;10523753;28;20048;-34
2023/08/27 08:38:21;;;;;;;2.13;1.17;;;22.40;71.40;;;;;;10513695;28;20066;-32
2023/08/27 08:43:28;;;;;;;5.88;2.58;;;20.80;80.30;;;;;;10526995;28;20052;-33
2023/08/27 08:48:38;;;;;;;7.65;3.65;;;19.40;90.90;;;;;;10539572;28;20111;-33
2023/08/27 08:53:42;;;;;;;6.55;3.50;;;19.60;90.80;;;;;;10513357;28;20050;-36
2023/08/27 08:58:52;;;;;;;4.75;2.42;;;20.80;86.90;;;;;;10512424;28;20076;-35
2023/08/27 09:03:56;;;;;;;4.80;1.17;;;21.10;84.40;;;;;;10522391;28;20075;-32
2023/08/27 09:09:00;;;;;;;3.20;1.63;;;20.30;87.50;;;;;;10530751;28;20044;-32
2023/08/27 09:14:04;;;;;;;2.80;1.23;;;20.40;89.10;;;;;;10515519;28;20092;-38
2023/08/27 09:19:07;;;;;;;1.42;0.95;;;22.00;76.70;;;;;;10504276;28;20052;-35
2023/08/27 09:24:09;;;;;;;2.03;1.20;;;22.90;73.00;;;;;;10520686;28;20109;-32
2023/08/27 09:29:12;;;;;;;2.45;1.00;;;23.20;69.80;;;;;;10526848;28;20072;-32
2023/08/27 09:34:16;;;;;;;3.17;1.35;;;23.30;68.90;;;;;;10525412;28;20135;-36
2023/08/27 09:39:19;;;;;;;4.30;1.23;;;22.30;73.30;;;;;;10516960;28;20077;-39
2023/08/27 09:44:25;;;;;;;2.40;0.82;;;23.20;69.80;;;;;;10528163;28;20450;-43
2023/08/27 09:49:29;;;;;;;3.50;1.10;;;22.10;73.50;;;;;;10506078;28;20447;-36
2023/08/27 09:54:32;;;;;;;4.60;0.98;;;21.80;75.30;;;;;;10517321;28;20421;-39
2023/08/27 09:59:43;;;;;;;2.22;0.70;;;20.40;88.30;;;;;;10513650;28;20056;-35
2023/08/27 10:04:54;;;;;;;6.82;1.20;;;20.90;83.00;;;;;;10521188;28;20382;-38
2023/08/27 10:09:56;;;;;;;3.42;1.10;;;20.20;90.30;;;;;;10526767;28;20075;-35
2023/08/27 10:15:00;;;;;;;3.47;0.70;;;20.70;88.20;;;;;;10522632;28;20513;-39
2023/08/27 10:20:05;;;;;;;2.38;0.65;;;22.70;73.20;;;;;;10525848;28;20089;-36
2023/08/27 10:25:08;;;;;;;3.22;0.70;;;22.50;71.90;;;;;;10509253;28;20801;-32
2023/08/27 10:30:12;;;;;;;5.97;0.98;;;21.80;76.50;;;;;;10508201;28;20056;-34
2023/08/27 10:35:16;;;;;;;3.63;0.77;;;21.00;80.50;;;;;;10515433;28;20056;-34
2023/08/27 10:40:17;;;;;;;3.88;0.50;;;20.30;82.50;;;;;;10523620;28;20075;-41
2023/08/27 10:45:21;;;;;;;1.80;0.63;;;19.90;82.40;;;;;;10511880;28;20048;-35
2023/08/27 10:50:25;;;;;;;2.00;0.80;;;21.40;76.00;;;;;;10516393;28;20045;-34
2023/08/27 10:55:35;;;;;;;4.03;0.40;;;20.80;85.80;;;;;;10502093;28;20084;-33
2023/08/27 11:00:58;;;;;;;1.65;1.45;;;20.20;80.40;;;;;;10510134;28;20052;-36
2023/08/27 11:06:13;;;;;;;2.55;0.65;;;20.60;86.50;;;;;;10516602;28;20071;-32
2023/08/27 11:11:15;;;;;;;2.80;0.60;;;19.40;93.00;;;;;;10514231;28;20126;-32
2023/08/27 11:16:18;;;;;;;1.30;0.63;;;19.60;87.80;;;;;;10521052;28;20086;-32
2023/08/27 11:21:40;;;;;;;1.40;0.93;;;20.60;86.50;;;;;;10513327;28;20395;-35
2023/08/27 11:26:41;;;;;;;0.80;0.73;;;20.30;87.40;;;;;;10509831;28;20441;-31
2023/08/27 11:31:45;;;;;;;2.45;1.27;;;20.50;87.20;;;;;;10520441;28;20056;-33
2023/08/27 11:36:49;;;;;;;1.85;1.20;;;20.50;89.70;;;;;;10528471;28;20114;-35
2023/08/27 11:41:50;;;;;;;1.80;1.00;;;20.20;90.80;;;;;;10537440;28;20078;-40
2023/08/27 11:46:52;;;;;;;1.70;1.02;;;20.20;90.70;;;;;;10521565;28;20048;-32
2023/08/27 11:51:57;;;;;;;3.88;1.30;;;20.40;91.60;;;;;;10507658;28;20440;-39
2023/08/27 11:57:02;;;;;;;4.68;1.48;;;19.10;96.70;;;;;;10512625;28;20147;-33
2023/08/27 12:02:04;;;;;;;7.00;1.63;;;18.90;98.50;;;;;;10530410;28;20052;-40
2023/08/27 12:07:07;;;;;;;;;;;18.70;97.30;;;;;;10520483;28;20048;-36
2023/08/27 12:12:09;;;;;;;4.97;1.08;;;19.80;93.70;;;;;;10512412;28;20788;-32
2023/08/27 12:17:11;;;;;;;4.10;0.63;;;19.60;92.40;;;;;;10517089;28;20047;-33
2023/08/27 12:22:17;;;;;;;1.80;0.98;;;18.70;93.80;;;;;;10531485;28;20135;-37
2023/08/27 12:27:22;;;;;;;1.60;1.08;;;20.50;87.70;;;;;;10534702;28;20048;-35
2023/08/27 12:32:30;;;;;;;4.32;1.67;;;20.80;85.90;;;;;;10527566;28;20040;-36
2023/08/27 12:37:34;;;;;;;4.88;1.73;;;21.70;80.10;;;;;;10521216;28;20075;-36
2023/08/27 12:42:35;;;;;;;2.80;2.38;;;21.20;82.30;;;;;;10526625;28;20055;-40
2023/08/27 12:47:37;;;;;;;8.40;2.72;;;21.20;81.90;;;;;;10524144;28;20089;-32
2023/08/27 12:52:41;;;;;;;4.85;2.15;;;21.10;80.90;;;;;;10532627;28;20551;-33
2023/08/27 12:57:42;;;;;;;16.77;3.45;;;21.30;84.50;;;;;;10515124;28;20509;-39
2023/08/27 13:02:44;;;;;;;2.47;1.23;;;19.00;98.80;;;;;;10513538;28;20044;-31
2023/08/27 13:07:47;;;;;;;1.77;0.93;;;20.30;94.30;;;;;;10523580;28;20040;-35
2023/08/27 13:12:49;;;;;;;9.63;2.85;;;19.60;95.70;;;;;;10518782;28;20105;-35
2023/08/27 13:17:51;;;;;;;4.57;0.73;;;20.10;92.60;;;;;;10512771;28;20067;-34
2023/08/27 13:22:54;;;;;;;7.95;2.35;;;20.80;91.20;;;;;;10513253;28;20126;-33
2023/08/27 13:27:57;;;;;;;4.68;2.10;;;19.00;99.70;;;;;;10515805;28;20473;-32
2023/08/27 13:32:59;;;;;;;3.25;1.90;;;18.80;99.90;;;;;;10522317;28;20492;-36
2023/08/27 13:38:02;;;;;;;2.78;1.73;;;18.90;99.90;;;;;;10507688;28;20080;-35
2023/08/27 13:43:06;;;;;;;1.58;1.00;;;19.10;99.90;;;;;;10524237;28;20101;-34
2023/08/27 13:48:08;;;;;;;2.78;1.25;;;20.50;96.90;;;;;;10513755;28;20500;-34
2023/08/27 13:53:11;;;;;;;5.45;1.63;;;19.60;92.10;;;;;;10508391;28;20043;-30
2023/08/27 13:58:13;;;;;;;7.57;1.70;;;20.00;93.70;;;;;;10506178;28;20056;-32
2023/08/27 14:03:15;;;;;;;3.55;1.10;;;20.80;88.80;;;;;;10514645;28;20070;-33
2023/08/27 14:08:25;;;;;;;;;;;21.70;79.00;;;;;;10517544;28;20048;-35
2023/08/27 14:13:26;;;;;;;3.00;0.82;;;21.10;88.10;;;;;;10533341;28;19924;-39
2023/08/27 14:18:28;;;;;;;1.45;0.70;;;21.90;81.00;;;;;;10518621;28;20048;-32
2023/08/27 14:23:32;;;;;;;3.85;1.08;;;22.00;80.30;;;;;;10519571;28;20446;-35
2023/08/27 14:28:34;;;;;;;3.25;0.90;;;21.20;80.30;;;;;;10517912;28;20047;-34
2023/08/27 14:33:35;;;;;;;3.10;1.10;;;22.00;83.00;;;;;;10516600;28;20052;-33
2023/08/27 14:38:40;;;;;;;1.90;0.82;;;21.70;79.70;;;;;;10520785;28;20045;-35
2023/08/27 14:43:42;;;;;;;2.25;0.80;;;22.60;77.80;;;;;;10498047;28;20055;-33
2023/08/27 14:48:44;;;;;;;2.25;1.25;;;21.90;77.40;;;;;;10511323;28;20436;-35
2023/08/27 14:53:47;;;;;;;6.25;1.70;;;21.70;79.40;;;;;;10520866;28;20094;-34
2023/08/27 14:58:52;;;;;;;3.70;1.77;;;21.10;77.10;;;;;;10505280;28;20043;-39
2023/08/27 15:03:54;;;;;;;5.55;1.50;;;20.90;80.20;;;;;;10516308;28;20041;-35
2023/08/27 15:08:57;;;;;;;2.90;1.52;;;21.20;86.30;;;;;;10523764;28;20369;-36
2023/08/27 15:13:59;;;;;;;4.30;1.77;;;20.90;80.90;;;;;;10513486;28;20098;-33
2023/08/27 15:19:01;;;;;;;3.72;1.52;;;21.70;83.30;;;;;;10504143;28;20394;-38
2023/08/27 15:24:05;;;;;;;2.45;1.40;;;22.30;71.30;;;;;;10514683;28;20634;-33
2023/08/27 15:29:07;;;;;;;2.90;1.13;;;22.70;76.40;;;;;;10516394;28;20080;-38
2023/08/27 15:34:10;;;;;;;3.75;0.88;;;21.80;75.00;;;;;;10507744;28;20052;-35
2023/08/27 15:39:13;;;;;;;1.75;0.68;;;22.80;81.50;;;;;;10516049;28;20382;-32
2023/08/27 15:44:15;;;;;;;4.97;1.23;;;23.40;73.80;;;;;;10525332;28;20094;-32
2023/08/27 15:49:19;;;;;;;;;;;22.90;72.90;;;;;;10517735;28;20072;-39
2023/08/27 15:54:22;;;;;;;1.20;0.68;;;23.60;75.10;;;;;;10509789;28;19928;-34
2023/08/27 15:59:24;;;;;;;1.58;0.77;;;23.70;79.30;;;;;;10520860;28;20051;-33
2023/08/27 16:04:25;;;;;;;2.83;1.33;;;23.80;71.90;;;;;;10503670;28;20047;-32
2023/08/27 16:09:28;;;;;;;2.00;1.23;;;23.20;68.00;;;;;;10521291;28;20090;-32
2023/08/27 16:14:30;;;;;;;3.97;1.10;;;23.40;68.40;;;;;;10506366;28;20083;-32
2023/08/27 16:19:32;;;;;;;3.33;1.83;;;23.10;80.80;;;;;;10508425;28;20090;-34
2023/08/27 16:24:35;;;;;;;5.65;1.38;;;23.30;79.80;;;;;;10526226;28;20134;-34
2023/08/27 16:29:37;;;;;;;2.08;1.10;;;22.90;77.80;;;;;;10534431;28;20461;-39
2023/08/27 16:34:39;;;;;;;1.13;1.00;;;23.50;72.10;;;;;;10544110;28;20071;-39
2023/08/27 16:39:42;;;;;;;2.75;1.20;;;23.80;80.60;;;;;;10514360;28;20878;-39
2023/08/27 16:44:45;;;;;;;1.67;1.00;;;23.30;74.50;;;;;;10515855;28;20121;-37
2023/08/27 16:49:47;;;;;;;2.97;1.27;;;22.50;74.60;;;;;;10513357;28;20097;-39
2023/08/27 16:54:50;;;;;;;2.85;1.52;;;22.60;89.60;;;;;;10500729;28;20139;-38
2023/08/27 16:59:52;;;;;;;2.45;1.27;;;22.70;89.50;;;;;;10509566;28;20098;-32
2023/08/27 17:04:54;;;;;;;;;;;22.70;90.00;;;;;;10533983;28;20378;-35
2023/08/27 17:09:57;;;;;;;4.77;1.47;;;22.60;83.20;;;;;;10529443;28;19947;-39
2023/08/27 17:14:59;;;;;;;5.22;1.35;;;22.50;83.70;;;;;;10514838;28;20516;-32
2023/08/27 17:20:01;;;;;;;3.35;1.70;;;22.10;75.80;;;;;;10529982;28;20055;-37
2023/08/27 17:25:05;;;;;;;1.85;1.02;;;21.60;90.60;;;;;;10522158;28;20048;-33
2023/08/27 17:30:08;;;;;;;3.13;1.00;;;23.40;80.50;;;;;;10515340;28;20072;-33
2023/08/27 17:35:10;;;;;;;1.48;0.70;;;23.40;70.60;;;;;;10509703;28;20044;-33
2023/08/27 17:40:13;;;;;;;1.55;1.00;;;22.70;87.70;;;;;;10527320;28;20443;-35
2023/08/27 17:45:17;;;;;;;2.55;0.93;;;22.80;79.30;;;;;;10528391;28;20045;-33
2023/08/27 17:50:19;;;;;;;4.93;0.90;;;22.40;76.40;;;;;;10525612;28;20472;-35
2023/08/27 17:55:22;;;;;;;1.45;0.88;;;22.00;91.80;;;;;;10529190;28;20668;-40
2023/08/27 18:00:24;;;;;;;1.25;0.80;;;22.50;80.50;;;;;;10528244;28;20140;-36
2023/08/27 18:05:26;;;;;;;3.63;0.80;;;22.10;86.30;;;;;;10526786;28;20044;-33
2023/08/27 18:10:29;;;;;;;1.85;0.80;;;22.40;91.40;;;;;;10523036;28;20044;-32
2023/08/27 18:15:31;;;;;;;3.47;1.50;;;22.40;91.40;;;;;;10532458;28;20056;-37
2023/08/27 18:20:33;;;;;;;2.63;1.00;;;22.50;90.00;;;;;;10510915;28;20055;-35
2023/08/27 18:25:36;;;;;;;2.50;0.90;;;22.50;91.00;;;;;;10519926;28;20090;-33
2023/08/27 18:30:38;;;;;;;2.88;0.98;;;20.60;97.90;;;;;;10495849;28;20653;-33
2023/08/27 18:35:40;;;;;;;2.15;0.70;;;21.50;94.40;;;;;;10512413;28;20509;-37
2023/08/27 18:40:43;;;;;;;3.22;1.00;;;22.10;93.00;;;;;;10522202;28;20448;-38
2023/08/27 18:45:45;;;;;;;2.90;0.82;;;20.80;96.20;;;;;;10513393;28;20044;-35
2023/08/27 18:50:47;;;;;;;;;;;21.80;91.40;;;;;;10511291;28;21252;-36
2023/08/27 18:55:50;;;;;;;2.93;0.60;;;22.90;87.80;;;;;;10511178;28;20269;-34
2023/08/27 19:00:53;;;;;;;2.58;0.90;;;22.00;92.10;;;;;;10506579;28;20446;-32
2023/08/27 19:05:54;;;;;;;6.70;1.20;;;19.90;99.20;;;;;;10513054;28;20478;-41
2023/08/27 19:10:58;;;;;;;1.90;0.90;;;20.70;94.30;;;;;;10524614;28;20140;-40
2023/08/27 19:15:59;;;;;;;3.90;0.57;;;20.90;95.50;;;;;;10529112;28;20142;-34
2023/08/27 19:21:02;;;;;;;2.67;0.70;;;21.20;93.20;;;;;;10520288;28;20113;-34
2023/08/27 19:26:05;;;;;;;;;;;21.70;90.60;;;;;;10508159;28;20066;-34
2023/08/27 19:31:07;;;;;;;2.45;0.77;;;21.70;91.20;;;;;;10513161;28;19924;-32
2023/08/27 19:36:09;;;;;;;0.95;0.60;;;22.50;83.70;;;;;;10513940;28;20538;-36
2023/08/27 19:41:12;;;;;;;2.67;1.20;;;23.70;77.10;;;;;;10511732;28;20048;-33
2023/08/27 19:46:14;;;;;;;3.97;0.75;;;22.40;85.70;;;;;;10511260;28;20041;-34
2023/08/27 19:51:16;;;;;;;0.85;0.60;;;22.10;88.40;;;;;;10500247;28;20483;-36
2023/08/27 19:56:20;;;;;;;2.97;0.80;;;22.50;84.70;;;;;;10515654;28;20516;-37
2023/08/27 20:01:22;;;;;;;1.67;0.82;;;21.10;91.20;;;;;;10506061;28;20075;-34
2023/08/27 20:06:24;;;;;;;1.10;0.70;;;23.00;81.10;;;;;;10518670;28;20118;-38
2023/08/27 20:11:28;;;;;;;;;;;21.00;88.90;;;;;;10526556;28;20508;-32
2023/08/27 20:16:29;;;;;;;2.25;0.57;;;21.70;91.10;;;;;;10506381;28;20048;-37
2023/08/27 20:21:31;;;;;;;1.38;0.68;;;21.20;88.70;;;;;;10523715;28;20048;-36
2023/08/27 20:26:35;;;;;;;3.10;0.77;;;22.30;80.30;;;;;;10512092;28;20044;-36
2023/08/27 20:31:37;;;;;;;1.00;0.60;;;22.70;82.90;;;;;;10516438;28;20072;-34
2023/08/27 20:36:39;;;;;;;1.98;0.60;;;21.70;86.20;;;;;;10505597;28;20090;-34
2023/08/27 20:41:43;;;;;;;1.52;0.50;;;22.00;80.30;;;;;;10478760;28;20048;-33
2023/08/27 20:46:45;;;;;;;2.38;0.90;;;22.30;80.50;;;;;;10507196;28;20127;-33
2023/08/27 20:51:46;;;;;;;;;;;23.00;78.60;;;;;;10506336;28;20054;-35
2023/08/27 20:56:49;;;;;;;1.03;0.70;;;22.30;84.50;;;;;;10500565;28;20012;-38
2023/08/27 21:01:51;;;;;;;1.70;0.93;;;21.90;84.60;;;;;;10513492;28;20105;-39
2023/08/27 21:06:53;;;;;;;3.30;0.90;;;22.50;80.60;;;;;;10520880;28;20068;-36
2023/08/27 21:11:58;;;;;;;3.47;1.02;;;21.60;84.60;;;;;;10517074;28;20439;-32
2023/08/27 21:16:59;;;;;;;3.67;1.20;;;22.40;82.40;;;;;;10514008;28;20077;-31
2023/08/27 21:22:01;;;;;;;2.60;1.08;;;22.50;81.40;;;;;;10515076;28;20451;-32
2023/08/27 21:27:05;;;;;;;1.60;1.08;;;22.40;82.00;;;;;;10511883;28;20097;-33
2023/08/27 21:32:07;;;;;;;4.30;1.20;;;22.30;80.00;;;;;;10515577;28;20048;-33
2023/08/27 21:37:09;;;;;;;;;;;23.10;76.80;;;;;;10519276;28;20075;-36
2023/08/27 21:42:12;;;;;;;1.77;0.70;;;22.20;82.70;;;;;;10510234;28;19924;-32
2023/08/27 21:47:14;;;;;;;2.47;1.45;;;23.20;75.90;;;;;;10497710;28;20059;-35
2023/08/27 21:52:16;;;;;;;2.17;1.30;;;23.10;76.70;;;;;;10517482;28;20556;-34
2023/08/27 21:57:19;;;;;;;3.15;1.02;;;23.40;75.10;;;;;;10518734;28;20063;-33
2023/08/27 22:02:21;;;;;;;1.92;0.88;;;22.50;78.60;;;;;;10511876;28;20044;-37
2023/08/27 22:07:23;;;;;;;;;;;22.90;75.20;;;;;;10522335;28;20061;-36
2023/08/27 22:12:26;;;;;;;3.37;1.73;;;23.10;76.00;;;;;;10514410;28;20437;-33
2023/08/27 22:17:30;;;;;;;2.42;1.17;;;23.50;73.20;;;;;;10521558;28;20560;-34
2023/08/27 22:22:32;;;;;;;4.20;1.30;;;23.00;75.40;;;;;;10522670;28;20506;-36
2023/08/27 22:27:36;;;;;;;;;;;23.10;74.40;;;;;;10510256;28;20712;-34
2023/08/27 22:32:38;;;;;;;1.80;0.90;;;23.60;73.10;;;;;;10519375;28;20421;-33
2023/08/27 22:37:41;;;;;;;4.28;1.20;;;22.90;75.40;;;;;;10520363;28;20661;-36
2023/08/27 22:42:44;;;;;;;3.40;1.15;;;23.30;74.70;;;;;;10520831;28;20087;-31
2023/08/27 22:47:46;;;;;;;2.10;1.10;;;23.30;74.00;;;;;;10509170;28;20052;-36
2023/08/27 22:52:48;;;;;;;2.40;0.70;;;22.90;74.80;;;;;;10521583;28;20093;-37
2023/08/27 22:57:51;;;;;;;1.63;1.10;;;22.30;77.00;;;;;;10511400;28;20140;-37
2023/08/27 23:02:53;;;;;;;2.35;1.10;;;23.40;73.10;;;;;;10516259;28;20101;-35
2023/08/27 23:07:54;;;;;;;3.95;1.02;;;23.60;72.30;;;;;;10510867;28;20523;-31
2023/08/27 23:12:58;;;;;;;2.70;1.15;;;23.30;71.70;;;;;;10527640;28;20060;-35
2023/08/27 23:18:00;;;;;;;2.28;1.23;;;23.40;72.70;;;;;;10524565;28;20059;-37
2023/08/27 23:23:02;;;;;;;2.35;0.88;;;23.80;70.60;;;;;;10522248;28;20531;-44
2023/08/27 23:28:06;;;;;;;5.53;1.23;;;23.10;72.40;;;;;;10525089;28;20480;-31
2023/08/27 23:33:08;;;;;;;1.77;0.85;;;23.60;72.20;;;;;;10526665;28;20072;-31
2023/08/27 23:38:10;;;;;;;3.05;1.00;;;22.20;76.30;;;;;;10523743;28;20048;-30
2023/08/27 23:43:13;;;;;;;2.00;1.00;;;22.60;75.60;;;;;;10537557;28;20051;-34
2023/08/27 23:48:15;;;;;;;1.30;0.90;;;22.60;74.70;;;;;;10502932;28;20145;-31
2023/08/27 23:53:16;;;;;;;;;;;22.40;77.90;;;;;;10512670;28;20371;-32
2023/08/27 23:58:20;;;;;;;1.33;0.50;;;22.10;81.60;;;;;;10532719;28;20367;-33
